createdAt,value
2018-08-13T00:00:56.716Z,6.45
2018-08-13T00:02:01.159Z,7.03
2018-08-13T00:03:06.113Z,6.53
2018-08-13T00:04:10.435Z,8.20
2018-08-13T00:05:14.689Z,6.90
2018-08-13T00:06:18.898Z,6.67
2018-08-13T00:07:23.321Z,5.42
2018-08-13T00:10:24.235Z,7.35
2018-08-13T00:11:29.063Z,8.23
2018-08-13T00:12:33.974Z,5.37
2018-08-13T00:13:39.272Z,5.97
2018-08-13T00:14:43.979Z,5.70
2018-08-13T00:15:48.722Z,5.20
2018-08-13T00:16:53.380Z,6.15
2018-08-13T00:17:58.012Z,8.20
2018-08-13T00:19:02.651Z,7.67
2018-08-13T00:20:07.447Z,13.08
2018-08-13T00:21:12.081Z,9.55
2018-08-13T00:22:16.816Z,5.65
2018-08-13T00:23:22.046Z,6.50
2018-08-13T00:24:27.024Z,6.60
2018-08-13T00:25:32.026Z,6.53
2018-08-13T00:26:36.649Z,7.10
2018-08-13T00:27:41.620Z,7.15
2018-08-13T00:28:46.293Z,8.83
2018-08-13T00:29:51.218Z,9.03
2018-08-13T00:30:55.908Z,8.48
2018-08-13T00:32:00.590Z,8.23
2018-08-13T00:33:06.299Z,7.45
2018-08-13T00:34:12.231Z,7.72
2018-08-13T00:35:17.759Z,8.35
2018-08-13T00:36:22.426Z,8.85
2018-08-13T00:37:27.346Z,8.58
2018-08-13T00:38:31.979Z,6.22
2018-08-13T00:39:36.594Z,7.90
2018-08-13T00:40:41.202Z,5.40
2018-08-13T00:41:45.862Z,7.08
2018-08-13T00:42:51.046Z,4.58
2018-08-13T00:44:02.494Z,6.10
2018-08-13T00:45:09.749Z,5.08
2018-08-13T00:46:14.812Z,6.72
2018-08-13T00:47:19.799Z,4.58
2018-08-13T00:48:24.455Z,6.28
2018-08-13T00:49:29.493Z,10.95
2018-08-13T00:50:34.551Z,7.20
2018-08-13T00:51:39.179Z,5.75
2018-08-13T00:52:44.721Z,5.45
2018-08-13T00:53:49.617Z,6.05
2018-08-13T00:54:54.551Z,8.15
2018-08-13T00:55:59.487Z,5.85
2018-08-13T00:57:04.760Z,13.00
2018-08-13T00:58:09.449Z,5.10
2018-08-13T00:59:14.545Z,5.95
2018-08-13T01:00:21.076Z,5.78
2018-08-13T01:01:26.047Z,12.70
2018-08-13T01:02:30.693Z,6.30
2018-08-13T01:03:35.657Z,9.65
2018-08-13T01:04:40.230Z,6.58
2018-08-13T01:05:45.159Z,7.12
2018-08-13T01:06:49.746Z,6.33
2018-08-13T01:07:54.746Z,5.05
2018-08-13T01:08:59.303Z,8.38
2018-08-13T01:10:04.729Z,8.63
2018-08-13T01:11:09.857Z,4.12
2018-08-13T01:12:14.541Z,5.42
2018-08-13T01:13:19.403Z,7.78
2018-08-13T01:14:24.175Z,5.90
2018-08-13T01:15:29.090Z,5.55
2018-08-13T01:16:33.811Z,5.97
2018-08-13T01:17:38.839Z,6.85
2018-08-13T01:18:43.524Z,5.90
2018-08-13T01:19:48.626Z,6.90
2018-08-13T01:20:53.380Z,4.90
2018-08-13T01:21:58.166Z,5.53
2018-08-13T01:23:03.166Z,6.42
2018-08-13T01:24:08.211Z,4.75
2018-08-13T01:25:15.851Z,5.58
2018-08-13T01:26:20.507Z,5.50
2018-08-13T01:27:30.200Z,5.83
2018-08-13T01:28:34.916Z,6.45
2018-08-13T01:29:39.722Z,6.60
2018-08-13T01:30:44.701Z,6.62
2018-08-13T01:31:55.444Z,7.10
2018-08-13T01:33:00.344Z,9.70
2018-08-13T01:34:10.910Z,6.95
2018-08-13T01:35:16.355Z,5.67
2018-08-13T01:36:21.510Z,11.18
2018-08-13T01:37:26.797Z,7.95
2018-08-13T01:38:31.383Z,8.58
2018-08-13T01:39:36.355Z,6.25
2018-08-13T01:40:41.619Z,6.47
2018-08-13T01:41:46.271Z,7.10
2018-08-13T01:42:50.913Z,6.40
2018-08-13T01:43:55.819Z,12.00
2018-08-13T01:45:00.677Z,6.95
2018-08-13T01:46:05.643Z,5.22
2018-08-13T01:47:10.213Z,7.10
2018-08-13T01:48:14.742Z,10.48
2018-08-13T01:49:19.439Z,8.05
2018-08-13T01:50:24.466Z,8.63
2018-08-13T01:51:29.262Z,12.88
2018-08-13T01:52:34.781Z,6.75
2018-08-13T01:53:42.802Z,10.30
2018-08-13T01:54:47.801Z,5.85
2018-08-13T01:55:52.429Z,15.55
2018-08-13T01:56:57.575Z,7.22
2018-08-13T01:58:02.182Z,7.97
2018-08-13T01:59:06.809Z,8.83
2018-08-13T02:00:14.803Z,7.72
2018-08-13T02:01:19.614Z,8.20
2018-08-13T02:02:24.549Z,5.95
2018-08-13T02:03:29.669Z,8.78
2018-08-13T02:04:34.507Z,10.08
2018-08-13T02:05:39.731Z,9.88
2018-08-13T02:06:44.311Z,8.48
2018-08-13T02:07:49.321Z,7.00
2018-08-13T02:08:54.391Z,6.92
2018-08-13T02:09:59.402Z,12.93
2018-08-13T02:11:04.705Z,7.30
2018-08-13T02:12:10.359Z,7.75
2018-08-13T02:13:15.276Z,5.10
2018-08-13T02:14:20.115Z,19.12
2018-08-13T02:15:25.489Z,6.72
2018-08-13T02:16:30.547Z,8.55
2018-08-13T02:17:35.632Z,6.78
2018-08-13T02:18:40.355Z,7.58
2018-08-13T02:19:45.368Z,10.70
2018-08-13T02:20:50.642Z,5.67
2018-08-13T02:21:55.766Z,6.70
2018-08-13T02:23:00.832Z,5.65
2018-08-13T02:24:05.871Z,5.80
2018-08-13T02:25:10.489Z,8.23
2018-08-13T02:26:15.938Z,4.72
2018-08-13T02:27:21.331Z,8.35
2018-08-13T02:28:26.246Z,4.92
2018-08-13T02:29:31.482Z,6.25
2018-08-13T02:30:36.437Z,7.25
2018-08-13T02:31:41.331Z,5.08
2018-08-13T02:32:46.760Z,5.37
2018-08-13T02:33:51.692Z,5.37
2018-08-13T02:34:56.296Z,5.22
2018-08-13T02:36:00.910Z,4.47
2018-08-13T02:37:05.563Z,7.60
2018-08-13T02:38:10.347Z,6.35
2018-08-13T02:39:15.096Z,11.38
2018-08-13T02:40:20.141Z,6.05
2018-08-13T02:41:25.079Z,7.80
2018-08-13T02:42:29.931Z,5.90
2018-08-13T02:43:34.866Z,4.60
2018-08-13T02:44:39.907Z,3.75
2018-08-13T02:45:44.751Z,6.08
2018-08-13T02:46:49.306Z,8.85
2018-08-13T02:47:54.341Z,4.40
2018-08-13T02:48:59.560Z,4.80
2018-08-13T02:50:05.717Z,5.00
2018-08-13T02:51:10.284Z,6.15
2018-08-13T02:52:15.008Z,5.47
2018-08-13T02:53:19.590Z,6.90
2018-08-13T02:54:24.388Z,10.70
2018-08-13T02:55:29.292Z,4.70
2018-08-13T02:56:34.526Z,7.33
2018-08-13T02:57:39.372Z,7.17
2018-08-13T02:58:43.986Z,6.37
2018-08-13T02:59:48.588Z,10.23
2018-08-13T03:00:53.280Z,9.48
2018-08-13T03:01:58.522Z,6.33
2018-08-13T03:03:03.352Z,7.65
2018-08-13T03:04:08.471Z,8.98
2018-08-13T03:05:13.677Z,6.87
2018-08-13T03:06:18.648Z,10.03
2018-08-13T03:07:23.636Z,9.20
2018-08-13T03:08:29.181Z,11.12
2018-08-13T03:09:34.107Z,7.60
2018-08-13T03:10:38.769Z,12.82
2018-08-13T03:11:43.460Z,9.60
2018-08-13T03:12:48.070Z,9.98
2018-08-13T03:13:53.300Z,7.92
2018-08-13T03:14:58.006Z,7.25
2018-08-13T03:16:02.939Z,6.50
2018-08-13T03:17:08.057Z,5.22
2018-08-13T03:18:13.261Z,10.25
2018-08-13T03:19:17.983Z,8.50
2018-08-13T03:20:23.310Z,10.85
2018-08-13T03:21:28.031Z,6.60
2018-08-13T03:22:32.608Z,5.08
2018-08-13T03:23:37.417Z,6.03
2018-08-13T03:24:42.194Z,4.95
2018-08-13T03:25:47.090Z,7.58
2018-08-13T03:26:53.066Z,5.60
2018-08-13T03:27:57.730Z,8.13
2018-08-13T03:29:02.433Z,6.33
2018-08-13T03:30:10.267Z,4.45
2018-08-13T03:31:15.528Z,5.25
2018-08-13T03:32:20.292Z,4.67
2018-08-13T03:33:25.156Z,5.58
2018-08-13T03:34:29.847Z,4.75
2018-08-13T03:35:34.695Z,16.15
2018-08-13T03:36:39.303Z,5.12
2018-08-13T03:37:44.112Z,6.33
2018-08-13T03:38:48.752Z,3.83
2018-08-13T03:39:53.364Z,5.72
2018-08-13T03:40:58.060Z,6.60
2018-08-13T03:42:02.749Z,5.45
2018-08-13T03:43:07.618Z,4.97
2018-08-13T03:44:13.076Z,7.42
2018-08-13T03:45:17.773Z,7.35
2018-08-13T03:46:22.392Z,5.72
2018-08-13T03:47:27.148Z,9.70
2018-08-13T03:48:31.914Z,9.15
2018-08-13T03:49:36.546Z,6.65
2018-08-13T03:50:41.278Z,5.17
2018-08-13T03:51:45.898Z,5.70
2018-08-13T03:52:50.768Z,6.67
2018-08-13T03:53:55.497Z,8.05
2018-08-13T03:55:00.473Z,5.80
2018-08-13T03:56:05.493Z,6.35
2018-08-13T03:57:10.081Z,5.80
2018-08-13T03:58:14.704Z,7.15
2018-08-13T03:59:19.288Z,10.98
2018-08-13T04:00:25.736Z,8.20
2018-08-13T04:01:30.939Z,6.30
2018-08-13T04:02:38.036Z,7.00
2018-08-13T04:03:42.985Z,5.22
2018-08-13T04:04:47.678Z,7.10
2018-08-13T04:05:52.287Z,5.53
2018-08-13T04:06:57.260Z,5.45
2018-08-13T04:08:01.993Z,7.92
2018-08-13T04:09:08.978Z,7.22
2018-08-13T04:10:14.087Z,5.20
2018-08-13T04:11:18.787Z,6.87
2018-08-13T04:12:23.446Z,4.95
2018-08-13T04:13:28.009Z,10.65
2018-08-13T04:14:32.681Z,6.67
2018-08-13T04:15:37.564Z,6.05
2018-08-13T04:16:42.191Z,6.60
2018-08-13T04:17:47.323Z,5.97
2018-08-13T04:18:52.011Z,9.38
2018-08-13T04:19:56.696Z,8.80
2018-08-13T04:21:01.283Z,8.88
2018-08-13T04:22:06.029Z,6.83
2018-08-13T04:23:11.143Z,8.48
2018-08-13T04:24:15.702Z,21.52
2018-08-13T04:25:22.190Z,5.08
2018-08-13T04:26:26.894Z,5.28
2018-08-13T04:27:31.633Z,7.22
2018-08-13T04:28:36.385Z,9.05
2018-08-13T04:29:42.723Z,5.60
2018-08-13T04:30:47.349Z,7.37
2018-08-13T04:31:52.053Z,12.10
2018-08-13T04:32:56.655Z,8.13
2018-08-13T04:34:01.394Z,12.37
2018-08-13T04:35:06.472Z,7.92
2018-08-13T04:36:11.346Z,7.45
2018-08-13T04:37:16.053Z,9.15
2018-08-13T04:38:20.696Z,7.55
2018-08-13T04:39:25.728Z,15.20
2018-08-13T04:40:33.768Z,6.37
2018-08-13T04:41:38.463Z,9.33
2018-08-13T04:42:44.540Z,10.75
2018-08-13T04:44:19.827Z,5.90
2018-08-13T04:45:24.431Z,8.78
2018-08-13T04:46:29.076Z,7.83
2018-08-13T04:47:33.739Z,8.03
2018-08-13T04:48:38.455Z,6.03
2018-08-13T04:49:43.214Z,8.55
2018-08-13T04:50:48.464Z,7.65
2018-08-13T04:51:53.383Z,8.43
2018-08-13T04:52:58.109Z,11.35
2018-08-13T04:54:02.879Z,8.28
2018-08-13T04:55:09.049Z,10.70
2018-08-13T04:56:13.722Z,7.75
2018-08-13T04:57:18.546Z,12.63
2018-08-13T04:58:23.468Z,13.78
2018-08-13T04:59:28.143Z,8.48
2018-08-13T05:00:32.817Z,7.50
2018-08-13T05:01:37.659Z,7.40
2018-08-13T05:02:42.844Z,9.35
2018-08-13T05:03:47.971Z,12.65
2018-08-13T05:04:52.836Z,8.40
2018-08-13T05:05:57.458Z,7.35
2018-08-13T05:07:02.037Z,6.83
2018-08-13T05:08:06.913Z,10.60
2018-08-13T05:09:11.865Z,6.97
2018-08-13T05:10:16.494Z,8.45
2018-08-13T05:11:21.151Z,6.87
2018-08-13T05:12:25.738Z,8.35
2018-08-13T05:13:30.424Z,6.47
2018-08-13T05:14:35.381Z,6.80
2018-08-13T05:15:40.342Z,7.15
2018-08-13T05:16:45.119Z,9.85
2018-08-13T05:17:49.808Z,10.75
2018-08-13T05:18:54.463Z,6.35
2018-08-13T05:19:59.528Z,7.25
2018-08-13T05:21:04.280Z,14.85
2018-08-13T05:22:09.027Z,9.35
2018-08-13T05:23:13.653Z,13.35
2018-08-13T05:24:18.546Z,10.75
2018-08-13T05:25:23.220Z,8.13
2018-08-13T05:26:28.203Z,12.35
2018-08-13T05:27:32.900Z,13.18
2018-08-13T05:28:37.655Z,15.00
2018-08-13T05:29:42.339Z,14.13
2018-08-13T05:30:47.303Z,14.60
2018-08-13T05:31:52.319Z,16.80
2018-08-13T05:32:56.997Z,9.35
2018-08-13T05:34:01.731Z,10.85
2018-08-13T05:35:07.546Z,12.28
2018-08-13T05:36:12.219Z,14.68
2018-08-13T05:37:17.262Z,17.15
2018-08-13T05:38:22.060Z,14.50
2018-08-13T05:39:26.648Z,9.98
2018-08-13T05:40:31.280Z,14.58
2018-08-13T05:41:36.062Z,8.10
2018-08-13T05:42:40.999Z,12.20
2018-08-13T05:43:45.668Z,13.13
2018-08-13T05:44:50.440Z,15.68
2018-08-13T05:45:55.174Z,17.77
2018-08-13T05:46:59.866Z,14.58
2018-08-13T05:48:04.884Z,13.48
2018-08-13T05:49:09.562Z,12.88
2018-08-13T05:50:14.359Z,15.78
2018-08-13T05:51:19.236Z,19.23
2018-08-13T05:52:23.942Z,15.55
2018-08-13T05:53:28.997Z,12.40
2018-08-13T05:54:33.652Z,14.28
2018-08-13T05:55:40.114Z,17.50
2018-08-13T05:56:44.891Z,20.88
2018-08-13T05:57:49.720Z,18.30
2018-08-13T05:58:54.414Z,12.95
2018-08-13T05:59:59.074Z,22.02
2018-08-13T06:01:03.804Z,14.35
2018-08-13T06:02:08.660Z,14.47
2018-08-13T06:03:13.602Z,19.15
2018-08-13T06:04:18.241Z,25.85
2018-08-13T06:05:22.891Z,26.73
2018-08-13T06:06:28.267Z,23.38
2018-08-13T06:07:32.965Z,17.07
2018-08-13T06:08:37.800Z,25.02
2018-08-13T06:09:44.348Z,10.88
2018-08-13T06:10:49.068Z,29.55
2018-08-13T06:11:54.083Z,16.80
2018-08-13T06:12:58.992Z,18.60
2018-08-13T06:14:04.605Z,13.25
2018-08-13T06:15:11.209Z,22.27
2018-08-13T06:16:15.843Z,18.57
2018-08-13T06:17:20.600Z,17.15
2018-08-13T06:18:25.356Z,14.33
2018-08-13T06:19:29.970Z,13.22
2018-08-13T06:20:34.766Z,14.95
2018-08-13T06:21:40.034Z,11.88
2018-08-13T06:22:45.387Z,12.05
2018-08-13T06:23:50.410Z,13.03
2018-08-13T06:24:55.928Z,11.83
2018-08-13T06:26:00.642Z,10.93
2018-08-13T06:27:06.788Z,10.78
2018-08-13T06:28:11.478Z,14.43
2018-08-13T06:29:16.127Z,12.03
2018-08-13T06:30:20.963Z,14.20
2018-08-13T06:31:25.683Z,7.65
2018-08-13T06:32:30.483Z,13.15
2018-08-13T06:33:35.306Z,10.03
2018-08-13T06:34:40.220Z,9.95
2018-08-13T06:35:46.009Z,14.35
2018-08-13T06:36:50.686Z,9.63
2018-08-13T06:37:55.428Z,13.40
2018-08-13T06:39:00.442Z,13.20
2018-08-13T06:40:05.829Z,9.43
2018-08-13T06:41:10.637Z,14.13
2018-08-13T06:42:15.647Z,9.68
2018-08-13T06:43:20.324Z,12.73
2018-08-13T06:44:25.008Z,10.72
2018-08-13T06:45:30.004Z,10.60
2018-08-13T06:46:35.124Z,13.95
2018-08-13T06:47:41.909Z,14.75
2018-08-13T06:48:46.917Z,17.15
2018-08-13T06:49:51.807Z,15.13
2018-08-13T06:50:56.516Z,15.13
2018-08-13T06:52:01.406Z,17.65
2018-08-13T06:53:06.340Z,18.12
2018-08-13T06:54:11.045Z,17.50
2018-08-13T06:55:15.848Z,16.00
2018-08-13T06:56:20.746Z,21.52
2018-08-13T06:57:25.424Z,13.65
2018-08-13T06:58:30.187Z,16.67
2018-08-13T06:59:34.981Z,12.45
2018-08-13T07:00:39.630Z,16.95
2018-08-13T07:01:44.407Z,13.08
2018-08-13T07:02:49.122Z,13.65
2018-08-13T07:03:53.899Z,13.10
2018-08-13T07:04:58.747Z,9.83
2018-08-13T07:06:03.699Z,10.98
2018-08-13T07:07:08.792Z,10.30
2018-08-13T07:08:13.976Z,13.78
2018-08-13T07:09:18.681Z,12.85
2018-08-13T07:10:23.500Z,24.72
2018-08-13T07:11:28.615Z,14.50
2018-08-13T07:12:33.491Z,15.18
2018-08-13T07:13:38.283Z,9.00
2018-08-13T07:14:43.159Z,10.70
2018-08-13T07:15:48.084Z,12.25
2018-08-13T07:16:53.023Z,18.00
2018-08-13T07:17:59.499Z,13.83
2018-08-13T07:19:08.861Z,11.95
2018-08-13T07:20:17.953Z,22.77
2018-08-13T07:21:26.382Z,16.50
2018-08-13T07:22:34.067Z,12.28
2018-08-13T07:23:39.245Z,9.83
2018-08-13T07:24:44.192Z,10.23
2018-08-13T07:25:49.001Z,11.68
2018-08-13T07:26:54.515Z,16.45
2018-08-13T07:27:59.356Z,10.68
2018-08-13T07:29:04.632Z,12.13
2018-08-13T07:30:13.079Z,17.80
2018-08-13T07:31:18.918Z,10.30
2018-08-13T07:32:23.939Z,12.60
2018-08-13T07:33:28.746Z,12.28
2018-08-13T07:34:33.767Z,12.35
2018-08-13T07:35:39.338Z,12.03
2018-08-13T07:36:44.102Z,14.07
2018-08-13T07:37:49.380Z,9.13
2018-08-13T07:38:54.090Z,10.32
2018-08-13T07:39:58.923Z,13.90
2018-08-13T07:41:04.120Z,10.45
2018-08-13T07:42:09.212Z,9.80
2018-08-13T07:43:14.426Z,10.13
2018-08-13T07:44:50.290Z,10.90
2018-08-13T07:45:58.966Z,12.88
2018-08-13T07:47:04.272Z,12.65
2018-08-13T07:48:09.319Z,11.57
2018-08-13T07:49:14.211Z,10.45
2018-08-13T07:50:19.028Z,11.18
2018-08-13T07:51:23.850Z,12.13
2018-08-13T07:52:28.654Z,16.00
2018-08-13T07:53:33.590Z,16.90
2018-08-13T07:54:38.417Z,11.88
2018-08-13T07:55:48.008Z,13.88
2018-08-13T07:56:52.879Z,10.80
2018-08-13T07:57:57.769Z,10.10
2018-08-13T07:59:02.886Z,9.18
2018-08-13T08:00:09.280Z,8.58
2018-08-13T08:01:14.254Z,10.35
2018-08-13T08:02:19.301Z,12.30
2018-08-13T08:03:24.398Z,11.30
2018-08-13T08:04:29.403Z,10.25
2018-08-13T08:05:34.252Z,10.53
2018-08-13T08:06:39.030Z,10.78
2018-08-13T08:07:44.027Z,10.10
2018-08-13T08:08:49.015Z,7.22
2018-08-13T08:09:54.011Z,7.12
2018-08-13T08:10:58.901Z,9.45
2018-08-13T08:12:03.868Z,9.58
2018-08-13T08:13:09.242Z,11.38
2018-08-13T08:14:14.306Z,9.55
2018-08-13T08:15:20.351Z,9.70
2018-08-13T08:16:25.389Z,10.75
2018-08-13T08:17:31.879Z,13.30
2018-08-13T08:18:37.044Z,11.45
2018-08-13T08:19:42.118Z,25.15
2018-08-13T08:20:47.363Z,8.65
2018-08-13T08:21:52.724Z,10.82
2018-08-13T08:22:58.388Z,16.30
2018-08-13T08:24:03.788Z,12.82
2018-08-13T08:25:20.110Z,13.22
2018-08-13T08:26:25.598Z,13.75
2018-08-13T08:27:32.179Z,10.95
2018-08-13T08:28:38.248Z,17.37
2018-08-13T08:30:10.071Z,10.85
2018-08-13T08:31:29.521Z,13.90
2018-08-13T08:32:36.565Z,12.28
2018-08-13T08:33:42.487Z,13.08
2018-08-13T08:34:51.522Z,15.32
2018-08-13T08:35:59.626Z,10.82
2018-08-13T08:37:05.292Z,11.53
2018-08-13T08:38:10.777Z,16.50
2018-08-13T08:39:16.471Z,21.27
2018-08-13T08:40:22.225Z,10.50
2018-08-13T08:41:27.313Z,13.25
2018-08-13T08:42:32.706Z,13.62
2018-08-13T08:43:39.685Z,11.75
2018-08-13T08:44:44.706Z,10.85
2018-08-13T08:45:53.293Z,13.35
2018-08-13T08:47:03.389Z,9.28
2018-08-13T08:48:12.298Z,11.60
2018-08-13T08:49:20.095Z,10.43
2018-08-13T08:50:25.332Z,11.40
2018-08-13T08:51:31.232Z,9.60
2018-08-13T08:52:36.149Z,16.25
2018-08-13T08:53:41.551Z,7.70
2018-08-13T08:54:46.678Z,12.65
2018-08-13T08:55:57.004Z,11.03
2018-08-13T08:57:09.225Z,6.42
2018-08-13T08:58:23.395Z,11.70
2018-08-13T08:59:32.016Z,10.63
2018-08-13T09:00:37.252Z,11.10
2018-08-13T09:01:42.371Z,10.20
2018-08-13T09:02:47.919Z,9.75
2018-08-13T09:03:53.866Z,8.83
2018-08-13T09:05:01.166Z,11.75
2018-08-13T09:06:14.000Z,12.18
2018-08-13T09:07:32.102Z,14.70
2018-08-13T09:08:39.527Z,8.20
2018-08-13T09:09:45.201Z,7.67
2018-08-13T09:10:51.258Z,8.35
2018-08-13T09:11:56.359Z,16.05
2018-08-13T09:13:02.337Z,10.70
2018-08-13T09:14:11.646Z,7.70
2018-08-13T09:15:18.308Z,11.00
2018-08-13T09:16:23.523Z,14.35
2018-08-13T09:17:38.836Z,11.63
2018-08-13T09:18:55.214Z,9.73
2018-08-13T09:20:14.267Z,8.90
2018-08-13T09:21:32.363Z,10.20
2018-08-13T09:22:47.988Z,11.85
2018-08-13T09:24:04.151Z,9.68
2018-08-13T09:25:21.548Z,7.25
2018-08-13T09:26:37.408Z,13.53
2018-08-13T09:27:53.967Z,10.00
2018-08-13T09:29:11.108Z,15.53
2018-08-13T09:30:27.028Z,8.05
2018-08-13T09:31:42.424Z,8.05
2018-08-13T09:32:58.818Z,8.90
2018-08-13T09:34:14.525Z,12.15
2018-08-13T09:35:27.580Z,7.47
2018-08-13T09:36:32.913Z,7.58
2018-08-13T09:37:40.302Z,11.10
2018-08-13T09:38:48.639Z,8.30
2018-08-13T09:39:53.648Z,9.23
2018-08-13T09:40:58.945Z,8.83
2018-08-13T09:42:03.947Z,7.90
2018-08-13T09:43:09.140Z,9.83
2018-08-13T09:44:14.144Z,8.33
2018-08-13T09:45:19.446Z,7.30
2018-08-13T09:46:25.094Z,9.08
2018-08-13T09:47:30.238Z,8.25
2018-08-13T09:48:38.204Z,11.18
2018-08-13T09:49:43.210Z,9.00
2018-08-13T09:50:48.358Z,9.25
2018-08-13T09:51:53.171Z,15.08
2018-08-13T09:52:58.127Z,8.30
2018-08-13T09:54:03.119Z,7.53
2018-08-13T09:55:08.838Z,10.90
2018-08-13T09:56:15.258Z,8.55
2018-08-13T09:57:21.049Z,10.20
2018-08-13T09:58:26.315Z,8.08
2018-08-13T09:59:31.196Z,8.80
2018-08-13T10:01:10.471Z,15.60
2018-08-13T10:02:15.470Z,6.28
2018-08-13T10:03:21.186Z,12.15
2018-08-13T10:04:26.920Z,8.20
2018-08-13T10:05:31.784Z,14.87
2018-08-13T10:06:39.808Z,10.60
2018-08-13T10:07:45.357Z,9.55
2018-08-13T10:08:50.932Z,6.60
2018-08-13T10:09:56.543Z,8.30
2018-08-13T10:11:03.270Z,8.45
2018-08-13T10:12:09.056Z,7.90
2018-08-13T10:13:14.037Z,16.60
2018-08-13T10:14:18.886Z,10.48
2018-08-13T10:15:26.003Z,10.93
2018-08-13T10:16:34.445Z,14.95
2018-08-13T10:17:43.352Z,7.10
2018-08-13T10:18:50.172Z,8.13
2018-08-13T10:19:55.084Z,21.02
2018-08-13T10:21:02.060Z,7.90
2018-08-13T10:22:07.706Z,13.00
2018-08-13T10:23:12.851Z,12.15
2018-08-13T10:24:17.767Z,11.03
2018-08-13T10:25:22.687Z,10.20
2018-08-13T10:26:27.766Z,12.23
2018-08-13T10:27:33.023Z,16.97
2018-08-13T10:28:39.613Z,8.85
2018-08-13T10:29:44.838Z,11.70
2018-08-13T10:30:50.254Z,10.82
2018-08-13T10:31:55.424Z,14.68
2018-08-13T10:33:00.730Z,9.98
2018-08-13T10:34:06.135Z,16.17
2018-08-13T10:35:11.527Z,10.98
2018-08-13T10:36:16.675Z,14.13
2018-08-13T10:37:23.243Z,9.33
2018-08-13T10:38:28.276Z,10.13
2018-08-13T10:39:33.023Z,15.35
2018-08-13T10:40:37.705Z,12.43
2018-08-13T10:41:42.741Z,11.95
2018-08-13T10:42:48.081Z,14.98
2018-08-13T10:43:53.902Z,10.10
2018-08-13T10:44:58.987Z,9.68
2018-08-13T10:46:05.958Z,12.37
2018-08-13T10:47:10.817Z,8.60
2018-08-13T10:48:18.475Z,11.55
2018-08-13T10:49:25.224Z,11.40
2018-08-13T10:50:34.652Z,11.85
2018-08-13T10:51:40.007Z,13.43
2018-08-13T10:53:08.811Z,14.55
2018-08-13T10:54:14.165Z,9.35
2018-08-13T10:55:19.005Z,10.93
2018-08-13T10:56:24.423Z,12.10
2018-08-13T10:57:29.675Z,10.65
2018-08-13T10:58:35.792Z,12.03
2018-08-13T10:59:40.719Z,7.58
2018-08-13T11:00:45.828Z,8.68
2018-08-13T11:01:50.803Z,11.45
2018-08-13T11:02:55.576Z,7.30
2018-08-13T11:04:00.223Z,8.40
2018-08-13T11:05:06.446Z,8.50
2018-08-13T11:06:12.494Z,8.63
2018-08-13T11:07:17.276Z,7.58
2018-08-13T11:08:23.423Z,9.53
2018-08-13T11:09:28.177Z,17.12
2018-08-13T11:10:32.902Z,7.50
2018-08-13T11:11:37.735Z,10.40
2018-08-13T11:12:42.789Z,10.95
2018-08-13T11:13:47.429Z,11.30
2018-08-13T11:14:52.106Z,12.65
2018-08-13T11:16:01.422Z,10.28
2018-08-13T11:17:06.549Z,7.90
2018-08-13T11:18:11.343Z,9.63
2018-08-13T11:19:16.207Z,9.43
2018-08-13T11:20:21.207Z,11.78
2018-08-13T11:21:25.996Z,8.43
2018-08-13T11:22:30.745Z,10.03
2018-08-13T11:23:38.137Z,11.22
2018-08-13T11:24:43.367Z,9.80
2018-08-13T11:25:48.245Z,12.05
2018-08-13T11:26:53.246Z,9.10
2018-08-13T11:27:58.230Z,18.10
2018-08-13T11:29:03.129Z,12.25
2018-08-13T11:30:09.922Z,10.85
2018-08-13T11:31:14.877Z,9.35
2018-08-13T11:32:19.592Z,13.60
2018-08-13T11:33:25.697Z,9.63
2018-08-13T11:34:31.367Z,7.45
2018-08-13T11:35:36.576Z,9.50
2018-08-13T11:36:41.352Z,15.95
2018-08-13T11:37:46.075Z,9.45
2018-08-13T11:38:51.076Z,12.43
2018-08-13T11:39:55.852Z,7.85
2018-08-13T11:41:00.694Z,6.72
2018-08-13T11:42:05.849Z,7.70
2018-08-13T11:43:10.618Z,9.28
2018-08-13T11:44:15.529Z,10.63
2018-08-13T11:45:22.050Z,9.70
2018-08-13T11:46:27.301Z,7.97
2018-08-13T11:47:32.189Z,13.25
2018-08-13T11:48:38.135Z,10.08
2018-08-13T11:49:42.873Z,11.93
2018-08-13T11:50:47.678Z,7.30
2018-08-13T11:51:52.667Z,10.90
2018-08-13T11:52:57.699Z,6.37
2018-08-13T11:54:03.227Z,7.97
2018-08-13T11:55:10.372Z,6.58
2018-08-13T11:56:15.325Z,6.90
2018-08-13T11:57:20.083Z,8.60
2018-08-13T11:58:29.515Z,6.67
2018-08-13T11:59:34.919Z,6.40
2018-08-13T12:00:39.751Z,6.67
2018-08-13T12:01:44.662Z,7.03
2018-08-13T12:02:49.769Z,5.60
2018-08-13T12:03:55.128Z,6.35
2018-08-13T12:04:59.635Z,7.37
2018-08-13T12:06:05.691Z,6.83
2018-08-13T12:07:10.799Z,8.45
2018-08-13T12:08:15.909Z,9.50
2018-08-13T12:09:21.668Z,7.00
2018-08-13T12:10:26.447Z,7.08
2018-08-13T12:11:31.268Z,8.58
2018-08-13T12:12:36.082Z,6.58
2018-08-13T12:13:40.959Z,7.65
2018-08-13T12:15:04.537Z,5.58
2018-08-13T12:16:09.965Z,7.10
2018-08-13T12:17:15.103Z,7.33
2018-08-13T12:18:19.964Z,7.95
2018-08-13T12:19:24.952Z,7.10
2018-08-13T12:20:29.893Z,9.23
2018-08-13T12:21:34.546Z,5.95
2018-08-13T12:22:39.522Z,8.73
2018-08-13T12:23:44.767Z,9.40
2018-08-13T12:24:49.491Z,6.30
2018-08-13T12:25:54.747Z,9.10
2018-08-13T12:26:59.656Z,12.40
2018-08-13T12:28:04.918Z,9.90
2018-08-13T12:29:09.842Z,9.90
2018-08-13T12:30:14.743Z,13.32
2018-08-13T12:31:19.538Z,20.80
2018-08-13T12:32:24.330Z,13.83
2018-08-13T12:33:31.046Z,29.37
2018-08-13T12:34:36.298Z,20.00
2018-08-13T12:35:41.090Z,33.42
2018-08-13T12:36:45.915Z,33.75
2018-08-13T12:37:53.889Z,34.43
2018-08-13T12:39:13.426Z,37.58
2018-08-13T12:40:18.317Z,60.95
2018-08-13T12:41:23.084Z,34.05
2018-08-13T12:42:27.789Z,16.37
2018-08-13T12:43:32.617Z,25.62
2018-08-13T12:44:38.217Z,14.13
2018-08-13T12:45:43.959Z,16.10
2018-08-13T12:46:48.730Z,14.45
2018-08-13T12:47:53.375Z,15.78
2018-08-13T12:48:58.289Z,11.53
2018-08-13T12:50:03.842Z,14.45
2018-08-13T12:51:10.675Z,12.82
2018-08-13T12:52:16.308Z,10.18
2018-08-13T12:53:21.106Z,10.50
2018-08-13T12:54:26.032Z,8.95
2018-08-13T12:55:30.818Z,7.67
2018-08-13T12:56:35.596Z,10.15
2018-08-13T12:57:40.924Z,11.60
2018-08-13T12:58:45.625Z,11.12
2018-08-13T12:59:50.522Z,7.85
2018-08-13T13:00:59.120Z,11.95
2018-08-13T13:02:04.392Z,12.05
2018-08-13T13:03:09.354Z,8.08
2018-08-13T13:04:14.174Z,7.97
2018-08-13T13:05:19.473Z,10.32
2018-08-13T13:06:24.222Z,6.80
2018-08-13T13:07:29.279Z,9.75
2018-08-13T13:08:34.416Z,8.28
2018-08-13T13:09:39.168Z,9.13
2018-08-13T13:10:43.275Z,8.75
2018-08-13T13:11:48.020Z,11.95
2018-08-13T13:12:53.257Z,10.45
2018-08-13T13:13:58.519Z,9.00
2018-08-13T13:15:04.497Z,6.85
2018-08-13T13:16:46.928Z,9.70
2018-08-13T13:18:02.895Z,11.48
2018-08-13T13:19:08.420Z,7.50
2018-08-13T13:20:16.619Z,9.03
2018-08-13T13:21:22.746Z,8.95
2018-08-13T13:22:28.492Z,12.25
2018-08-13T13:23:34.309Z,9.63
2018-08-13T13:24:39.545Z,7.80
2018-08-13T13:25:49.961Z,6.70
2018-08-13T13:27:05.156Z,7.60
2018-08-13T13:28:11.194Z,12.85
2018-08-13T13:29:17.788Z,7.22
2018-08-13T13:30:27.325Z,13.30
2018-08-13T13:31:33.145Z,7.35
2018-08-13T13:32:37.780Z,6.70
2018-08-13T13:33:42.912Z,6.97
2018-08-13T13:34:47.816Z,6.15
2018-08-13T13:36:05.730Z,5.83
2018-08-13T13:37:10.515Z,5.28
2018-08-13T13:38:16.526Z,7.35
2018-08-13T13:39:22.429Z,5.03
2018-08-13T13:40:27.166Z,12.03
2018-08-13T13:41:32.297Z,4.83
2018-08-13T13:42:37.744Z,6.70
2018-08-13T13:43:42.921Z,7.00
2018-08-13T13:44:48.004Z,7.17
2018-08-13T13:45:54.560Z,8.55
2018-08-13T13:46:59.352Z,7.70
2018-08-13T13:48:05.923Z,7.47
2018-08-13T13:49:10.905Z,7.53
2018-08-13T13:50:16.851Z,5.47
2018-08-13T13:51:21.842Z,7.37
2018-08-13T13:52:28.085Z,6.25
2018-08-13T13:53:33.469Z,6.62
2018-08-13T13:54:38.314Z,7.90
2018-08-13T13:55:43.175Z,5.65
2018-08-13T13:56:48.173Z,5.30
2018-08-13T13:57:52.884Z,6.97
2018-08-13T13:58:57.603Z,5.62
2018-08-13T14:00:03.776Z,5.72
2018-08-13T14:01:10.530Z,5.55
2018-08-13T14:02:15.392Z,5.15
2018-08-13T14:03:20.095Z,4.97
2018-08-13T14:04:24.788Z,4.70
2018-08-13T14:05:29.593Z,7.35
2018-08-13T14:06:34.526Z,6.17
2018-08-13T14:07:39.221Z,5.90
2018-08-13T14:08:45.780Z,8.08
2018-08-13T14:09:50.873Z,4.37
2018-08-13T14:10:55.694Z,4.45
2018-08-13T14:12:00.573Z,4.78
2018-08-13T14:13:06.075Z,8.93
2018-08-13T14:14:11.765Z,5.42
2018-08-13T14:15:18.338Z,3.77
2018-08-13T14:16:23.322Z,5.25
2018-08-13T14:17:28.171Z,4.00
2018-08-13T14:18:33.080Z,6.70
2018-08-13T14:19:37.995Z,4.10
2018-08-13T14:20:42.777Z,4.30
2018-08-13T14:21:47.555Z,5.05
2018-08-13T14:22:53.372Z,5.15
2018-08-13T14:23:59.422Z,4.30
2018-08-13T14:25:05.977Z,3.80
2018-08-13T14:26:11.750Z,4.50
2018-08-13T14:27:17.349Z,4.17